createdAt,value
2023-03-20T00:03:15.659Z,4.32
2023-03-20T00:08:21.411Z,4.24
2023-03-20T00:13:28.521Z,4.16
2023-03-20T00:18:34.488Z,4.10
2023-03-20T00:23:40.461Z,4.04
2023-03-20T00:28:48.031Z,3.93
2023-03-20T00:33:56.196Z,3.88
2023-03-20T00:39:01.878Z,3.86
2023-03-20T00:44:19.902Z,3.89
2023-03-20T00:49:28.208Z,3.82
2023-03-20T00:54:34.014Z,3.75
2023-03-20T00:59:46.923Z,3.69
2023-03-20T01:04:52.738Z,3.57
2023-03-20T01:09:58.322Z,3.47
2023-03-20T01:15:04.438Z,3.43
2023-03-20T01:20:16.826Z,3.37
2023-03-20T01:25:23.113Z,3.29
2023-03-20T01:30:30.605Z,3.19
2023-03-20T01:35:36.460Z,3.09
2023-03-20T01:40:51.388Z,3.07
2023-03-20T01:46:04.814Z,3.10
2023-03-20T01:51:11.769Z,3.23
2023-03-20T01:56:20.127Z,3.30
2023-03-20T02:01:29.420Z,3.23
2023-03-20T02:06:36.205Z,3.17
2023-03-20T02:12:10.291Z,3.09
2023-03-20T02:17:16.668Z,3.02
2023-03-20T02:23:00.673Z,2.99
2023-03-20T02:28:39.253Z,2.98
2023-03-20T02:34:35.731Z,2.97
2023-03-20T02:39:52.247Z,2.93
2023-03-20T02:45:13.108Z,2.89
2023-03-20T02:50:27.352Z,2.88
2023-03-20T02:55:44.045Z,2.92
2023-03-20T03:00:58.228Z,2.93
2023-03-20T03:06:10.594Z,2.89
2023-03-20T03:11:17.561Z,2.86
2023-03-20T03:16:27.340Z,2.81
2023-03-20T03:21:35.904Z,2.71
2023-03-20T03:26:42.927Z,2.61
2023-03-20T03:31:49.409Z,2.51
2023-03-20T03:37:02.944Z,2.36
2023-03-20T03:42:15.829Z,2.24
2023-03-20T03:47:27.908Z,2.22
2023-03-20T03:52:34.768Z,2.27
2023-03-20T03:57:46.558Z,2.22
2023-03-20T04:02:56.385Z,2.12
2023-03-20T04:08:04.188Z,1.99
2023-03-20T04:13:10.600Z,1.89
2023-03-20T04:18:18.392Z,1.74
2023-03-20T04:23:25.310Z,1.63
2023-03-20T04:28:31.118Z,1.63
2023-03-20T04:33:57.035Z,1.68
2023-03-20T04:39:14.703Z,1.68
2023-03-20T04:44:20.562Z,1.71
2023-03-20T04:49:28.765Z,1.68
2023-03-20T04:54:34.984Z,1.64
2023-03-20T04:59:41.218Z,1.65
2023-03-20T05:04:47.157Z,1.67
2023-03-20T05:09:54.078Z,1.78
2023-03-20T05:14:59.629Z,1.99
2023-03-20T05:20:23.849Z,2.26
2023-03-20T05:25:42.489Z,2.51
2023-03-20T05:31:16.300Z,2.78
2023-03-20T05:36:37.017Z,3.09
2023-03-20T05:42:09.124Z,3.40
2023-03-20T05:47:26.763Z,3.71
2023-03-20T05:52:58.425Z,4.20
2023-03-20T05:58:27.404Z,4.72
2023-03-20T06:03:54.182Z,5.35
2023-03-20T06:09:18.960Z,5.94
2023-03-20T06:14:25.598Z,6.38
2023-03-20T06:19:36.868Z,6.82
2023-03-20T06:24:43.347Z,7.47
2023-03-20T06:29:49.503Z,8.62
2023-03-20T06:34:58.762Z,10.78
2023-03-20T06:40:05.727Z,13.32
2023-03-20T06:45:13.216Z,16.08
2023-03-20T06:50:37.223Z,18.43
2023-03-20T06:55:46.489Z,19.79
2023-03-20T07:00:52.208Z,21.03
2023-03-20T07:05:58.842Z,22.34
2023-03-20T07:11:04.411Z,23.39
2023-03-20T07:16:11.746Z,24.14
2023-03-20T07:21:23.024Z,23.12
2023-03-20T07:26:29.019Z,21.60
2023-03-20T07:31:35.617Z,20.91
2023-03-20T07:36:51.050Z,19.83
2023-03-20T07:41:58.991Z,20.09
2023-03-20T07:47:16.188Z,21.80
2023-03-20T07:52:21.817Z,22.49
2023-03-20T07:57:27.259Z,23.31
2023-03-20T08:02:35.030Z,24.16
2023-03-20T08:07:42.745Z,25.28
2023-03-20T08:12:48.594Z,25.82
2023-03-20T08:17:54.250Z,25.95
2023-03-20T08:22:59.747Z,26.32
2023-03-20T08:28:05.453Z,27.17
2023-03-20T08:33:11.099Z,27.77
2023-03-20T08:38:16.625Z,28.15
2023-03-20T08:43:23.534Z,28.28
2023-03-20T08:48:29.027Z,28.56
2023-03-20T08:53:34.550Z,28.39
2023-03-20T08:58:40.339Z,28.50
2023-03-20T09:03:45.756Z,28.48
2023-03-20T09:08:51.325Z,28.68
2023-03-20T09:13:57.049Z,28.86
2023-03-20T09:19:02.631Z,28.17
2023-03-20T09:24:08.846Z,26.62
2023-03-20T09:29:14.234Z,25.76
2023-03-20T09:34:19.846Z,26.49
2023-03-20T09:39:26.124Z,27.34
2023-03-20T09:44:49.424Z,28.10
2023-03-20T09:50:22.592Z,28.67
2023-03-20T09:55:35.274Z,29.04
2023-03-20T10:00:44.238Z,29.14
2023-03-20T10:05:56.725Z,28.87
2023-03-20T10:11:20.037Z,28.87
2023-03-20T10:16:40.065Z,28.79
2023-03-20T10:21:48.635Z,27.43
2023-03-20T10:26:58.308Z,25.53
2023-03-20T10:32:05.880Z,23.84
2023-03-20T10:37:27.425Z,22.39
2023-03-20T10:42:38.101Z,21.35
2023-03-20T10:47:48.265Z,20.75
2023-03-20T10:52:56.438Z,20.14
2023-03-20T10:58:11.757Z,19.74
2023-03-20T11:03:23.689Z,19.69
2023-03-20T11:08:36.769Z,20.20
2023-03-20T11:13:44.006Z,21.24
2023-03-20T11:18:50.726Z,22.34
2023-03-20T11:23:57.346Z,22.76
2023-03-20T11:29:05.694Z,22.95
2023-03-20T11:34:26.808Z,23.08
2023-03-20T11:39:34.054Z,23.01
2023-03-20T11:44:41.544Z,21.98
2023-03-20T11:49:54.837Z,21.05
2023-03-20T11:55:03.412Z,21.01
2023-03-20T12:00:21.321Z,21.29
2023-03-20T12:05:33.111Z,20.98
2023-03-20T12:10:42.421Z,21.23
2023-03-20T12:15:51.092Z,21.66
2023-03-20T12:21:11.067Z,21.99
2023-03-20T12:26:22.764Z,22.00
2023-03-20T12:31:35.979Z,21.70
2023-03-20T12:36:45.476Z,21.45
2023-03-20T12:42:04.821Z,21.43
2023-03-20T12:47:23.971Z,21.08
2023-03-20T12:52:45.980Z,21.30
2023-03-20T12:58:05.314Z,21.18
2023-03-20T13:03:29.292Z,21.07
2023-03-20T13:08:54.641Z,20.85
2023-03-20T13:14:05.721Z,20.45
2023-03-20T13:19:24.415Z,20.14
2023-03-20T13:24:37.071Z,19.61
2023-03-20T13:29:50.392Z,19.05
2023-03-20T13:35:16.281Z,18.60
2023-03-20T13:40:25.993Z,18.24
2023-03-20T13:45:35.308Z,18.20
2023-03-20T13:50:49.444Z,18.41
2023-03-20T13:56:04.176Z,18.48
2023-03-20T14:01:17.268Z,18.22
2023-03-20T14:06:45.601Z,17.69
2023-03-20T14:11:52.610Z,17.19
2023-03-20T14:17:15.275Z,16.83
2023-03-20T14:22:24.045Z,16.52
2023-03-20T14:27:43.938Z,16.25
2023-03-20T14:33:00.429Z,16.05
2023-03-20T14:38:18.432Z,15.82
2023-03-20T14:43:42.667Z,15.46
2023-03-20T14:48:52.690Z,15.15
2023-03-20T14:54:21.458Z,14.95
2023-03-20T14:59:32.298Z,14.65
2023-03-20T15:04:41.648Z,14.39
2023-03-20T15:09:51.045Z,14.06
2023-03-20T15:14:58.982Z,13.79
2023-03-20T15:20:12.827Z,13.62
2023-03-20T15:25:20.679Z,13.45
2023-03-20T15:30:26.988Z,13.34
2023-03-20T15:35:32.665Z,13.27
2023-03-20T15:40:50.516Z,13.15
2023-03-20T15:46:16.122Z,13.00
2023-03-20T15:51:28.128Z,12.83
2023-03-20T15:56:35.235Z,12.70
2023-03-20T16:01:40.883Z,12.60
2023-03-20T16:06:54.698Z,12.53
2023-03-20T16:12:02.776Z,12.41
2023-03-20T16:17:08.699Z,12.29
2023-03-20T16:22:21.104Z,12.26
2023-03-20T16:27:30.051Z,12.19
2023-03-20T16:32:38.270Z,12.02
2023-03-20T16:37:49.934Z,11.87
2023-03-20T16:42:57.326Z,11.77
2023-03-20T16:48:26.438Z,11.65
2023-03-20T16:53:40.658Z,11.51
2023-03-20T16:58:47.379Z,11.37
2023-03-20T17:03:56.373Z,11.24
2023-03-20T17:09:08.905Z,11.11
2023-03-20T17:14:14.544Z,10.96
2023-03-20T17:19:21.242Z,10.79
2023-03-20T17:24:27.145Z,10.65
2023-03-20T17:29:32.937Z,10.53
2023-03-20T17:34:38.893Z,10.34
2023-03-20T17:39:44.311Z,10.11
2023-03-20T17:44:50.212Z,9.90
2023-03-20T17:49:56.016Z,9.76
2023-03-20T17:55:01.352Z,9.68
2023-03-20T18:00:10.009Z,9.57
2023-03-20T18:05:15.774Z,9.40
2023-03-20T18:10:29.026Z,9.24
2023-03-20T18:15:34.833Z,9.13
2023-03-20T18:20:41.606Z,9.05
2023-03-20T18:25:47.222Z,8.94
2023-03-20T18:31:02.022Z,8.82
2023-03-20T18:36:12.857Z,8.67
2023-03-20T18:41:19.056Z,8.41
2023-03-20T18:46:26.148Z,8.31
2023-03-20T18:51:31.894Z,8.33
2023-03-20T18:56:37.938Z,8.42
2023-03-20T19:01:43.716Z,8.49
2023-03-20T19:06:49.510Z,8.54
2023-03-20T19:11:54.969Z,8.56
2023-03-20T19:17:00.891Z,8.61
2023-03-20T19:22:10.627Z,8.67
2023-03-20T19:27:19.453Z,8.78
2023-03-20T19:32:25.085Z,8.89
2023-03-20T19:37:30.698Z,8.95
2023-03-20T19:42:59.012Z,8.95
2023-03-20T19:48:03.161Z,8.95
2023-03-20T19:53:10.803Z,8.97
2023-03-20T19:58:16.634Z,8.98
2023-03-20T20:03:24.727Z,8.95
2023-03-20T20:08:45.227Z,8.95
2023-03-20T20:14:10.399Z,9.04
2023-03-20T20:19:19.524Z,9.18
2023-03-20T20:24:25.444Z,9.33
2023-03-20T20:29:31.128Z,9.43
2023-03-20T20:40:04.882Z,9.61
2023-03-20T20:45:12.931Z,9.61
2023-03-20T20:50:21.133Z,9.59
2023-03-20T20:55:26.848Z,9.60
2023-03-20T21:00:47.979Z,9.62
2023-03-20T21:05:56.551Z,9.61
2023-03-20T21:11:01.986Z,9.58
2023-03-20T21:16:08.881Z,9.54
2023-03-20T21:21:16.087Z,9.52
2023-03-20T21:26:21.704Z,9.46
2023-03-20T21:31:31.042Z,9.42
2023-03-20T21:36:37.029Z,9.40
2023-03-20T21:41:42.823Z,9.39
2023-03-20T21:53:12.020Z,9.25
2023-03-20T22:03:11.606Z,9.26
2023-03-20T22:09:19.780Z,9.20
2023-03-20T22:20:02.702Z,9.21
2023-03-20T22:42:03.652Z,9.18
2023-03-20T22:46:45.444Z,9.16
2023-03-20T22:52:11.195Z,9.10
2023-03-20T22:57:17.773Z,9.07
2023-03-20T23:02:24.312Z,9.04
2023-03-20T23:07:29.876Z,8.93
2023-03-20T23:12:36.612Z,8.85
2023-03-20T23:17:42.041Z,8.76
2023-03-20T23:22:47.631Z,8.68
2023-03-20T23:27:53.015Z,8.56
2023-03-20T23:32:58.517Z,8.44
2023-03-20T23:38:03.968Z,8.39
2023-03-20T23:43:09.466Z,8.37
2023-03-20T23:48:15.666Z,8.33
2023-03-20T23:53:21.650Z,8.30
2023-03-20T23:58:28.084Z,8.31
